createdAt,value
2017-11-08T00:01:23.704Z,80.08
2017-11-08T00:03:51.272Z,79.94
2017-11-08T00:06:18.779Z,79.60
2017-11-08T00:08:46.315Z,79.67
2017-11-08T00:11:13.826Z,79.39
2017-11-08T00:13:41.338Z,79.07
2017-11-08T00:16:08.820Z,78.98
2017-11-08T00:18:36.341Z,78.92
2017-11-08T00:21:03.967Z,78.83
2017-11-08T00:23:36.401Z,79.01
2017-11-08T00:26:03.888Z,79.18
2017-11-08T00:28:31.392Z,79.11
2017-11-08T00:30:58.909Z,79.50
2017-11-08T00:33:26.446Z,78.86
2017-11-08T00:35:53.960Z,78.63
2017-11-08T00:38:21.510Z,78.53
2017-11-08T00:40:49.019Z,78.21
2017-11-08T00:43:16.518Z,78.32
2017-11-08T00:45:44.011Z,77.79
2017-11-08T00:48:11.528Z,77.94
2017-11-08T00:50:39.010Z,77.73
2017-11-08T00:53:10.447Z,77.75
2017-11-08T00:55:37.961Z,77.75
2017-11-08T00:58:05.448Z,77.84
2017-11-08T01:00:34.822Z,78.04
2017-11-08T01:03:02.363Z,78.35
2017-11-08T01:05:29.861Z,78.18
2017-11-08T01:07:57.345Z,77.95
2017-11-08T01:10:24.883Z,77.78
2017-11-08T01:12:52.375Z,77.22
2017-11-08T01:15:19.880Z,76.61
2017-11-08T01:17:47.412Z,76.68
2017-11-08T01:20:14.907Z,76.95
2017-11-08T01:22:42.424Z,76.98
2017-11-08T01:25:09.921Z,77.03
2017-11-08T01:27:37.413Z,77.11
2017-11-08T01:30:04.917Z,77.22
2017-11-08T01:32:32.441Z,77.10
2017-11-08T01:34:59.934Z,77.10
2017-11-08T01:37:33.118Z,77.14
2017-11-08T01:40:00.620Z,77.04
2017-11-08T01:42:28.887Z,77.15
2017-11-08T01:44:56.408Z,76.67
2017-11-08T01:47:23.886Z,76.80
2017-11-08T01:49:54.168Z,76.70
2017-11-08T01:52:21.792Z,76.83
2017-11-08T01:54:49.286Z,76.32
2017-11-08T01:57:16.834Z,76.19
2017-11-08T01:59:44.382Z,76.07
2017-11-08T02:02:11.887Z,76.32
2017-11-08T02:04:39.373Z,76.32
2017-11-08T02:07:06.878Z,76.09
2017-11-08T02:09:34.401Z,76.14
2017-11-08T02:12:01.891Z,75.52
2017-11-08T02:14:29.402Z,75.52
2017-11-08T02:16:56.911Z,75.33
2017-11-08T02:19:24.426Z,75.24
2017-11-08T02:21:53.100Z,75.45
2017-11-08T02:24:20.626Z,75.57
2017-11-08T02:29:44.556Z,74.87
2017-11-08T02:32:14.886Z,74.86
2017-11-08T02:34:42.405Z,74.64
2017-11-08T02:37:09.918Z,74.76
2017-11-08T02:39:37.425Z,74.78
2017-11-08T02:42:05.785Z,74.85
2017-11-08T02:44:33.274Z,74.94
2017-11-08T02:47:00.785Z,74.71
2017-11-08T02:49:28.304Z,74.81
2017-11-08T02:51:55.802Z,74.87
2017-11-08T02:54:24.697Z,74.68
2017-11-08T02:56:52.196Z,74.62
2017-11-08T02:59:19.703Z,74.68
2017-11-08T03:01:47.209Z,74.74
2017-11-08T03:04:14.702Z,74.52
2017-11-08T03:06:42.189Z,74.42
2017-11-08T03:09:09.710Z,74.63
2017-11-08T03:11:37.221Z,74.78
2017-11-08T03:14:04.718Z,74.65
2017-11-08T03:16:32.190Z,74.38
2017-11-08T03:18:59.666Z,74.69
2017-11-08T03:21:27.131Z,74.51
2017-11-08T03:23:54.609Z,74.49
2017-11-08T03:26:22.095Z,74.52
2017-11-08T03:28:49.563Z,74.72
2017-11-08T03:31:17.083Z,74.43
2017-11-08T03:33:44.553Z,74.21
2017-11-08T03:36:12.028Z,74.44
2017-11-08T03:38:39.524Z,75.09
2017-11-08T03:41:06.988Z,75.25
2017-11-08T03:43:34.443Z,75.37
2017-11-08T03:46:01.972Z,75.43
2017-11-08T03:48:29.430Z,75.19
2017-11-08T03:50:56.926Z,75.50
2017-11-08T03:53:24.418Z,75.44
2017-11-08T03:55:51.895Z,75.52
2017-11-08T03:58:19.370Z,75.75
2017-11-08T04:00:46.880Z,75.46
2017-11-08T04:03:14.430Z,75.58
2017-11-08T04:05:41.893Z,75.58
2017-11-08T04:08:09.449Z,75.37
2017-11-08T04:10:36.900Z,75.30
2017-11-08T04:13:04.368Z,75.27
2017-11-08T04:15:31.837Z,75.44
2017-11-08T04:17:59.329Z,74.96
2017-11-08T04:20:26.793Z,75.30
2017-11-08T04:22:54.345Z,75.30
2017-11-08T04:25:21.826Z,75.29
2017-11-08T04:27:49.319Z,75.10
2017-11-08T04:30:16.840Z,74.93
2017-11-08T04:32:44.315Z,75.20
2017-11-08T04:35:11.847Z,75.05
2017-11-08T04:37:39.325Z,74.72
2017-11-08T04:40:06.784Z,74.82
2017-11-08T04:42:34.242Z,74.38
2017-11-08T04:45:01.733Z,74.58
2017-11-08T04:47:29.199Z,74.34
2017-11-08T04:49:56.663Z,74.52
2017-11-08T04:52:24.161Z,74.36
2017-11-08T04:54:51.681Z,74.14
2017-11-08T04:57:19.248Z,73.98
2017-11-08T04:59:52.617Z,73.99
2017-11-08T05:02:20.144Z,73.96
2017-11-08T05:04:47.620Z,74.21
2017-11-08T05:07:15.109Z,74.16
2017-11-08T05:09:42.566Z,74.08
2017-11-08T05:12:10.047Z,73.89
2017-11-08T05:14:37.532Z,73.74
2017-11-08T05:17:05.001Z,73.84
2017-11-08T05:19:32.514Z,73.80
2017-11-08T05:22:00.005Z,73.47
2017-11-08T05:24:27.476Z,73.26
2017-11-08T05:26:54.966Z,72.87
2017-11-08T05:29:22.441Z,73.24
2017-11-08T05:31:49.949Z,73.55
2017-11-08T05:34:17.415Z,72.94
2017-11-08T05:36:44.923Z,72.79
2017-11-08T05:39:12.399Z,72.86
2017-11-08T05:41:39.861Z,72.76
2017-11-08T05:44:07.381Z,72.99
2017-11-08T05:46:34.875Z,72.91
2017-11-08T05:49:02.346Z,73.00
2017-11-08T05:51:29.826Z,72.76
2017-11-08T05:53:57.453Z,72.89
2017-11-08T05:56:24.953Z,73.07
2017-11-08T05:58:52.610Z,72.94
2017-11-08T06:01:20.074Z,73.12
2017-11-08T06:03:47.540Z,73.15
2017-11-08T06:06:15.125Z,74.25
2017-11-08T06:08:42.602Z,74.38
2017-11-08T06:11:10.071Z,74.91
2017-11-08T06:13:37.557Z,75.72
2017-11-08T06:16:05.024Z,76.23
2017-11-08T06:18:32.497Z,77.01
2017-11-08T06:21:00.015Z,77.20
2017-11-08T06:23:27.518Z,77.47
2017-11-08T06:25:54.990Z,77.88
2017-11-08T06:28:22.468Z,78.25
2017-11-08T06:30:49.932Z,79.15
2017-11-08T06:33:17.403Z,79.45
2017-11-08T06:35:44.888Z,80.44
2017-11-08T06:38:12.367Z,81.03
2017-11-08T06:40:39.848Z,81.81
2017-11-08T06:43:07.359Z,82.14
2017-11-08T06:45:34.844Z,82.12
2017-11-08T06:48:02.316Z,82.89
2017-11-08T06:50:32.290Z,83.35
2017-11-08T06:53:01.716Z,83.70
2017-11-08T06:55:30.001Z,83.86
2017-11-08T06:57:57.500Z,83.93
2017-11-08T07:00:24.983Z,84.10
2017-11-08T07:02:52.459Z,83.98
2017-11-08T07:05:19.943Z,84.06
2017-11-08T07:07:47.449Z,84.32
2017-11-08T07:10:14.904Z,84.11
2017-11-08T07:12:42.405Z,84.09
2017-11-08T07:15:09.888Z,83.60
2017-11-08T07:17:37.345Z,83.61
2017-11-08T07:20:04.846Z,83.21
2017-11-08T07:22:32.329Z,83.55
2017-11-08T07:24:59.802Z,83.72
2017-11-08T07:27:27.302Z,84.21
2017-11-08T07:29:54.787Z,84.23
2017-11-08T07:32:22.251Z,84.59
2017-11-08T07:34:49.743Z,84.57
2017-11-08T07:37:17.210Z,83.63
2017-11-08T07:39:44.687Z,83.38
2017-11-08T07:42:12.170Z,83.40
2017-11-08T07:44:39.724Z,83.61
2017-11-08T07:47:07.214Z,83.98
2017-11-08T07:49:34.728Z,84.04
2017-11-08T07:52:07.517Z,83.57
2017-11-08T07:54:35.084Z,83.42
2017-11-08T07:57:02.595Z,82.79
2017-11-08T07:59:35.646Z,82.41
2017-11-08T08:02:03.114Z,82.46
2017-11-08T08:04:30.601Z,82.03
2017-11-08T08:06:58.169Z,82.10
2017-11-08T08:09:25.678Z,81.87
2017-11-08T08:11:53.160Z,82.27
2017-11-08T08:14:20.644Z,82.26
2017-11-08T08:16:48.125Z,82.49
2017-11-08T08:19:30.078Z,82.60
2017-11-08T08:21:57.560Z,82.65
2017-11-08T08:24:25.050Z,82.71
2017-11-08T08:26:52.602Z,82.62
2017-11-08T08:29:22.032Z,82.62
2017-11-08T08:31:49.534Z,82.96
2017-11-08T08:34:17.043Z,83.01
2017-11-08T08:36:44.529Z,83.28
2017-11-08T08:39:12.010Z,83.19
2017-11-08T08:41:39.497Z,82.98
2017-11-08T08:44:06.974Z,83.45
2017-11-08T08:46:34.449Z,83.11
2017-11-08T08:49:01.939Z,82.99
2017-11-08T08:51:29.459Z,82.85
2017-11-08T08:53:56.945Z,83.37
2017-11-08T08:56:24.427Z,83.90
2017-11-08T08:58:51.890Z,84.18
2017-11-08T09:01:19.381Z,84.42
2017-11-08T09:03:46.889Z,84.16
2017-11-08T09:06:14.357Z,84.16
2017-11-08T09:08:41.848Z,84.57
2017-11-08T09:13:59.639Z,84.96
2017-11-08T09:16:27.182Z,85.21
2017-11-08T09:18:54.703Z,84.93
2017-11-08T09:21:22.279Z,84.72
2017-11-08T09:23:49.814Z,84.80
2017-11-08T09:26:17.357Z,84.89
2017-11-08T09:28:44.886Z,84.60
2017-11-08T09:31:17.883Z,84.65
2017-11-08T09:33:45.405Z,85.06
2017-11-08T09:36:14.850Z,85.45
2017-11-08T09:38:42.371Z,86.27
2017-11-08T09:41:09.959Z,86.37
2017-11-08T09:43:37.487Z,86.42
2017-11-08T09:46:05.011Z,86.27
2017-11-08T09:48:33.235Z,85.90
2017-11-08T09:51:00.738Z,85.67
2017-11-08T09:53:28.267Z,85.43
2017-11-08T09:55:58.284Z,85.25
2017-11-08T09:58:25.830Z,85.47
2017-11-08T10:00:57.189Z,85.36
2017-11-08T10:05:58.457Z,85.55
2017-11-08T10:08:26.025Z,85.70
2017-11-08T10:10:59.099Z,85.91
2017-11-08T10:13:27.515Z,85.75
2017-11-08T10:15:55.042Z,85.71
2017-11-08T10:18:22.576Z,85.99
2017-11-08T10:20:50.081Z,85.75
2017-11-08T10:23:20.527Z,85.31
2017-11-08T10:25:48.144Z,84.97
2017-11-08T10:28:15.651Z,84.77
2017-11-08T10:30:43.162Z,85.04
2017-11-08T10:33:10.693Z,85.37
2017-11-08T10:35:38.181Z,85.55
2017-11-08T10:38:08.378Z,85.46
2017-11-08T10:40:35.929Z,85.49
2017-11-08T10:43:03.441Z,84.83
2017-11-08T10:45:30.908Z,84.54
2017-11-08T10:47:58.387Z,84.49
2017-11-08T10:50:25.886Z,84.38
2017-11-08T10:55:51.725Z,84.73
2017-11-08T10:58:20.236Z,84.86
2017-11-08T11:00:50.203Z,83.01
2017-11-08T11:03:17.681Z,82.81
2017-11-08T11:05:45.238Z,83.23
2017-11-08T11:08:14.131Z,81.74
2017-11-08T11:10:41.705Z,81.55
2017-11-08T11:13:09.258Z,81.93
2017-11-08T11:15:36.753Z,82.57
2017-11-08T11:18:04.241Z,83.05
2017-11-08T11:20:31.749Z,81.28
2017-11-08T11:22:59.221Z,81.61
2017-11-08T11:25:26.706Z,82.09
2017-11-08T11:27:54.190Z,81.92
2017-11-08T11:30:26.512Z,82.54
2017-11-08T11:32:54.013Z,82.91
2017-11-08T11:35:21.529Z,83.25
2017-11-08T11:37:49.026Z,82.85
2017-11-08T11:40:16.515Z,83.50
2017-11-08T11:42:44.081Z,83.59
2017-11-08T11:45:11.556Z,83.66
2017-11-08T11:47:39.091Z,83.67
2017-11-08T11:50:06.610Z,83.84
2017-11-08T11:52:34.108Z,84.29
2017-11-08T11:55:01.594Z,83.92
2017-11-08T11:57:29.094Z,83.72
2017-11-08T11:59:56.581Z,84.18
2017-11-08T12:02:24.103Z,84.29
2017-11-08T12:04:51.648Z,84.09
2017-11-08T12:07:19.152Z,82.97
2017-11-08T12:09:46.622Z,83.57
2017-11-08T12:12:14.152Z,83.75
2017-11-08T12:14:41.668Z,83.90
2017-11-08T12:17:09.145Z,83.73
2017-11-08T12:19:38.481Z,83.47
2017-11-08T12:22:05.972Z,83.68
2017-11-08T12:24:33.489Z,84.04
2017-11-08T12:27:05.772Z,84.00
2017-11-08T12:29:33.356Z,84.21
2017-11-08T12:32:00.897Z,84.32
2017-11-08T12:34:28.388Z,84.57
2017-11-08T12:36:55.935Z,84.14
2017-11-08T12:39:23.406Z,83.89
2017-11-08T12:41:50.916Z,84.29
2017-11-08T12:44:24.014Z,84.35
2017-11-08T12:46:51.521Z,85.01
2017-11-08T12:49:18.988Z,85.30
2017-11-08T12:51:46.462Z,85.16
2017-11-08T12:54:13.971Z,85.48
2017-11-08T12:56:41.450Z,85.94
2017-11-08T12:59:08.943Z,85.77
2017-11-08T13:01:36.481Z,85.79
2017-11-08T13:04:06.668Z,85.66
2017-11-08T13:06:36.902Z,85.93
2017-11-08T13:09:04.427Z,85.81
2017-11-08T13:11:35.855Z,86.25
2017-11-08T13:14:03.384Z,86.52
2017-11-08T13:16:30.904Z,86.71
2017-11-08T13:18:58.411Z,86.66
2017-11-08T13:21:25.963Z,87.04
2017-11-08T13:23:53.445Z,87.53
2017-11-08T13:26:20.936Z,87.85
2017-11-08T13:28:48.468Z,88.04
2017-11-08T13:31:15.961Z,88.07
2017-11-08T13:33:43.476Z,87.90
2017-11-08T13:36:10.964Z,87.86
2017-11-08T13:38:38.475Z,87.89
2017-11-08T13:41:05.967Z,87.71
2017-11-08T13:43:33.524Z,87.30
2017-11-08T13:46:01.026Z,87.01
2017-11-08T13:48:28.512Z,87.03
2017-11-08T13:50:56.499Z,87.11
2017-11-08T13:53:23.990Z,86.77
2017-11-08T13:55:51.499Z,87.10
2017-11-08T13:58:19.090Z,87.09
2017-11-08T14:00:46.596Z,87.57
2017-11-08T14:03:14.268Z,87.47
2017-11-08T14:05:41.781Z,87.10
2017-11-08T14:08:09.252Z,86.59
2017-11-08T14:10:36.734Z,86.34
2017-11-08T14:13:04.227Z,85.42
2017-11-08T14:15:31.692Z,84.95
2017-11-08T14:17:59.173Z,85.35
2017-11-08T14:20:26.657Z,85.34
2017-11-08T14:22:54.187Z,85.87
2017-11-08T14:25:21.678Z,85.85
2017-11-08T14:27:49.168Z,85.27
2017-11-08T14:30:16.688Z,85.54
2017-11-08T14:32:44.155Z,84.98
2017-11-08T14:35:11.732Z,85.39
2017-11-08T14:37:39.983Z,85.35
2017-11-08T14:40:07.466Z,85.42
2017-11-08T14:42:39.533Z,84.69
2017-11-08T14:45:07.017Z,84.47
2017-11-08T14:47:34.531Z,83.86
2017-11-08T14:50:02.027Z,84.21
2017-11-08T14:52:29.504Z,84.73
2017-11-08T14:54:57.003Z,85.09
2017-11-08T14:57:24.525Z,85.68
2017-11-08T14:59:52.020Z,85.80
2017-11-08T15:02:19.492Z,85.85
2017-11-08T15:04:46.979Z,85.59
2017-11-08T15:07:14.485Z,85.40
2017-11-08T15:09:42.007Z,85.54
2017-11-08T15:12:10.292Z,85.33
2017-11-08T15:14:42.629Z,84.34
2017-11-08T15:17:10.139Z,84.53
2017-11-08T15:19:43.158Z,84.72
2017-11-08T15:22:10.656Z,84.75
2017-11-08T15:24:38.135Z,84.76
2017-11-08T15:27:05.583Z,85.00
2017-11-08T15:29:33.052Z,84.72
2017-11-08T15:32:00.546Z,84.58
2017-11-08T15:34:33.448Z,84.91
2017-11-08T15:37:00.931Z,85.12
2017-11-08T15:39:28.414Z,85.18
2017-11-08T15:41:55.918Z,85.54
2017-11-08T15:44:23.476Z,85.35
2017-11-08T15:46:54.856Z,85.44
2017-11-08T15:49:22.374Z,84.66
2017-11-08T15:51:49.852Z,84.26
2017-11-08T15:54:17.318Z,84.13
2017-11-08T15:56:44.787Z,84.53
2017-11-08T15:59:12.246Z,84.60
2017-11-08T16:01:41.654Z,84.55
2017-11-08T16:04:12.050Z,84.46
2017-11-08T16:06:39.565Z,84.57
2017-11-08T16:09:10.773Z,84.64
2017-11-08T16:11:38.254Z,84.57
2017-11-08T16:14:05.748Z,84.41
2017-11-08T16:16:33.233Z,84.66
2017-11-08T16:19:02.677Z,84.79
2017-11-08T16:21:38.709Z,85.06
2017-11-08T16:24:06.211Z,84.78
2017-11-08T16:26:33.675Z,85.18
2017-11-08T16:29:01.152Z,85.31
2017-11-08T16:31:28.675Z,85.62
2017-11-08T16:33:56.149Z,85.68
2017-11-08T16:36:23.629Z,85.35
2017-11-08T16:38:51.133Z,85.41
2017-11-08T16:41:18.604Z,85.53
2017-11-08T16:43:46.083Z,85.87
2017-11-08T16:46:13.605Z,85.63
2017-11-08T16:48:41.082Z,86.05
2017-11-08T16:51:08.582Z,86.28
2017-11-08T16:53:36.081Z,86.43
2017-11-08T16:56:03.571Z,86.65
2017-11-08T16:58:31.056Z,85.90
2017-11-08T17:00:58.575Z,86.30
2017-11-08T17:03:26.068Z,86.80
2017-11-08T17:05:53.581Z,86.96
2017-11-08T17:08:21.253Z,87.25
2017-11-08T17:10:48.729Z,87.38
2017-11-08T17:13:16.194Z,87.38
2017-11-08T17:15:43.670Z,87.28
2017-11-08T17:18:11.173Z,87.27
2017-11-08T17:20:38.762Z,87.01
2017-11-08T17:23:06.262Z,86.69
2017-11-08T17:25:33.726Z,86.74
2017-11-08T17:28:01.191Z,86.41
2017-11-08T17:30:28.677Z,86.46
2017-11-08T17:32:56.143Z,86.43
2017-11-08T17:35:23.865Z,86.65
2017-11-08T17:37:51.367Z,86.68
2017-11-08T17:40:18.856Z,86.71
2017-11-08T17:42:46.356Z,87.08
2017-11-08T17:45:13.850Z,87.16
2017-11-08T17:47:41.326Z,87.20
2017-11-08T17:50:08.800Z,87.14
2017-11-08T17:52:36.952Z,86.93
2017-11-08T17:55:04.439Z,87.34
2017-11-08T17:57:32.029Z,87.54
2017-11-08T17:59:59.698Z,87.17
2017-11-08T18:02:28.328Z,87.34
2017-11-08T18:04:55.913Z,87.59
2017-11-08T18:07:27.871Z,87.83
2017-11-08T18:09:56.302Z,87.74
2017-11-08T18:12:23.851Z,87.63
2017-11-08T18:14:51.482Z,88.11
2017-11-08T18:17:19.007Z,88.38
2017-11-08T18:19:46.539Z,88.32
2017-11-08T18:22:14.040Z,88.32
2017-11-08T18:24:41.913Z,88.22
2017-11-08T18:27:09.392Z,88.32
2017-11-08T18:29:36.902Z,88.26
2017-11-08T18:32:04.431Z,88.89
2017-11-08T18:34:32.018Z,89.19
2017-11-08T18:36:59.503Z,89.10
2017-11-08T18:39:29.275Z,89.38
2017-11-08T18:41:56.785Z,89.69
2017-11-08T18:44:26.101Z,89.92
2017-11-08T18:46:53.682Z,90.09
2017-11-08T18:49:21.191Z,90.39
2017-11-08T18:51:48.694Z,90.27
2017-11-08T18:54:16.181Z,90.39
2017-11-08T18:56:43.719Z,90.27
2017-11-08T18:59:11.281Z,90.21
2017-11-08T19:01:38.786Z,90.65
2017-11-08T19:04:06.273Z,90.73
2017-11-08T19:06:33.770Z,90.77
2017-11-08T19:09:01.244Z,91.14
2017-11-08T19:11:28.757Z,90.96
2017-11-08T19:13:56.284Z,91.36
2017-11-08T19:16:23.796Z,91.53
2017-11-08T19:18:51.280Z,91.38
2017-11-08T19:21:18.865Z,91.46
2017-11-08T19:23:46.359Z,91.78
2017-11-08T19:26:13.843Z,92.04
2017-11-08T19:28:41.538Z,92.02
2017-11-08T19:31:09.139Z,92.15
2017-11-08T19:33:36.615Z,92.12
2017-11-08T19:36:04.169Z,91.93
2017-11-08T19:38:31.659Z,92.03
2017-11-08T19:41:00.416Z,92.05
2017-11-08T19:43:27.964Z,91.94
2017-11-08T19:45:55.477Z,92.54
2017-11-08T19:48:22.952Z,92.91
2017-11-08T19:50:50.445Z,92.96
2017-11-08T19:53:17.942Z,92.76
2017-11-08T19:55:45.431Z,92.67
2017-11-08T19:58:12.994Z,92.23
2017-11-08T20:00:40.805Z,92.25
2017-11-08T20:03:08.335Z,91.81
2017-11-08T20:05:35.876Z,91.75
2017-11-08T20:08:03.398Z,92.15
2017-11-08T20:10:30.918Z,92.32
2017-11-08T20:12:58.501Z,92.05
2017-11-08T20:15:27.751Z,91.88
2017-11-08T20:17:55.239Z,92.11
2017-11-08T20:20:22.786Z,92.10
2017-11-08T20:22:51.125Z,92.32
2017-11-08T20:25:18.801Z,92.12
2017-11-08T20:27:46.383Z,92.20
2017-11-08T20:30:13.868Z,92.40
2017-11-08T20:32:41.751Z,92.41
2017-11-08T20:35:09.325Z,92.27
2017-11-08T20:37:36.860Z,92.30
2017-11-08T20:40:04.325Z,92.24
2017-11-08T20:42:31.806Z,92.05
2017-11-08T20:44:59.278Z,91.82
2017-11-08T20:47:26.745Z,91.76
2017-11-08T20:49:54.233Z,91.74
2017-11-08T20:52:21.778Z,91.84
2017-11-08T20:54:49.234Z,91.87
2017-11-08T20:57:16.734Z,91.79
2017-11-08T20:59:44.281Z,91.78
2017-11-08T21:02:11.750Z,91.81
2017-11-08T21:04:39.261Z,91.59
2017-11-08T21:07:06.770Z,91.43
2017-11-08T21:09:34.256Z,91.36
2017-11-08T21:12:01.868Z,91.47
2017-11-08T21:14:29.360Z,91.58
2017-11-08T21:16:59.800Z,91.54
2017-11-08T21:19:27.411Z,91.38
2017-11-08T21:21:54.903Z,91.23
2017-11-08T21:24:22.548Z,91.15
2017-11-08T21:26:50.084Z,91.15
2017-11-08T21:29:17.605Z,90.96
2017-11-08T21:31:45.136Z,90.76
2017-11-08T21:34:12.608Z,90.65
2017-11-08T21:36:41.007Z,90.68
2017-11-08T21:39:08.516Z,90.77
2017-11-08T21:41:36.105Z,90.88
2017-11-08T21:44:03.570Z,90.79
2017-11-08T21:46:32.826Z,90.90
2017-11-08T21:49:00.304Z,91.13
2017-11-08T21:51:30.271Z,90.80
2017-11-08T21:53:58.633Z,90.53
2017-11-08T21:56:27.414Z,90.85
2017-11-08T21:58:56.880Z,91.31
2017-11-08T22:01:24.383Z,91.59
2017-11-08T22:03:51.859Z,91.79
2017-11-08T22:06:19.324Z,91.75
2017-11-08T22:08:46.813Z,91.89
2017-11-08T22:11:14.330Z,91.97
2017-11-08T22:13:45.795Z,92.15
2017-11-08T22:16:13.300Z,91.67
2017-11-08T22:18:40.807Z,91.77
2017-11-08T22:21:08.299Z,92.12
2017-11-08T22:23:35.842Z,91.71
2017-11-08T22:26:04.080Z,91.74
2017-11-08T22:28:35.873Z,91.04
2017-11-08T22:31:03.970Z,88.77
2017-11-08T22:33:31.433Z,89.26
2017-11-08T22:35:58.951Z,89.39
2017-11-08T22:38:27.594Z,89.77
2017-11-08T22:40:57.956Z,89.84
2017-11-08T22:43:25.979Z,89.83
2017-11-08T22:45:53.478Z,90.07
2017-11-08T22:48:20.946Z,90.16
2017-11-08T22:50:48.430Z,89.38
2017-11-08T22:53:15.903Z,89.48
2017-11-08T22:55:43.374Z,89.17
2017-11-08T22:58:10.838Z,88.74
2017-11-08T23:00:41.231Z,88.69
2017-11-08T23:03:08.690Z,88.55
2017-11-08T23:05:36.160Z,88.25
2017-11-08T23:08:03.675Z,88.43
2017-11-08T23:10:31.155Z,88.63
2017-11-08T23:12:58.653Z,88.92
2017-11-08T23:15:26.142Z,88.88
2017-11-08T23:17:53.598Z,88.64
2017-11-08T23:20:21.807Z,88.57
2017-11-08T23:22:50.696Z,88.52
2017-11-08T23:25:18.929Z,88.19
2017-11-08T23:27:48.543Z,87.86
2017-11-08T23:30:17.258Z,87.84
2017-11-08T23:32:48.151Z,88.22
2017-11-08T23:35:18.287Z,87.42
2017-11-08T23:37:49.354Z,87.30
2017-11-08T23:40:17.003Z,87.30
2017-11-08T23:42:45.578Z,85.99
2017-11-08T23:45:13.051Z,86.78
2017-11-08T23:47:40.603Z,86.29
2017-11-08T23:50:08.090Z,86.48
2017-11-08T23:52:35.567Z,85.50
2017-11-08T23:55:03.033Z,85.48
2017-11-08T23:57:30.525Z,85.36
